createdAt,value
2023-05-03T00:00:42.538Z,8.00
2023-05-03T00:03:09.742Z,7.90
2023-05-03T00:05:37.805Z,7.90
2023-05-03T00:08:05.414Z,8.00
2023-05-03T00:10:32.410Z,7.90
2023-05-03T00:12:59.407Z,8.10
2023-05-03T00:15:26.440Z,8.00
2023-05-03T00:17:53.546Z,8.00
2023-05-03T00:20:20.766Z,7.90
2023-05-03T00:22:47.882Z,7.90
2023-05-03T00:25:15.328Z,7.80
2023-05-03T00:27:42.495Z,7.90
2023-05-03T00:30:11.227Z,7.80
2023-05-03T00:32:38.517Z,7.60
2023-05-03T00:35:06.847Z,7.60
2023-05-03T00:37:33.888Z,7.50
2023-05-03T00:40:01.079Z,7.50
2023-05-03T00:42:28.275Z,7.50
2023-05-03T00:44:56.198Z,7.50
2023-05-03T00:47:23.565Z,7.40
2023-05-03T00:49:51.316Z,7.50
2023-05-03T00:52:18.534Z,7.40
2023-05-03T00:54:45.961Z,7.20
2023-05-03T00:57:13.448Z,7.20
2023-05-03T00:59:40.741Z,7.20
2023-05-03T01:02:08.917Z,7.30
2023-05-03T01:04:37.319Z,7.30
2023-05-03T01:07:31.504Z,7.40
2023-05-03T01:10:07.224Z,7.40
2023-05-03T01:12:52.873Z,7.40
2023-05-03T01:15:50.326Z,7.30
2023-05-03T01:18:22.504Z,7.20
2023-05-03T01:20:51.107Z,7.30
2023-05-03T01:23:47.823Z,7.30
2023-05-03T01:26:24.990Z,7.30
2023-05-03T01:28:52.081Z,7.20
2023-05-03T01:31:44.221Z,7.10
2023-05-03T01:34:13.960Z,7.00
2023-05-03T01:36:44.429Z,6.90
2023-05-03T01:39:21.169Z,6.80
2023-05-03T01:41:51.251Z,6.70
2023-05-03T01:44:21.017Z,6.80
2023-05-03T01:46:48.302Z,6.70
2023-05-03T01:49:15.314Z,6.70
2023-05-03T01:51:42.337Z,6.80
2023-05-03T01:54:09.438Z,6.60
2023-05-03T01:56:37.033Z,6.70
2023-05-03T01:59:04.469Z,6.70
2023-05-03T02:01:31.504Z,6.80
2023-05-03T02:03:58.650Z,6.70
2023-05-03T02:06:26.556Z,6.70
2023-05-03T02:08:54.454Z,6.70
2023-05-03T02:11:21.690Z,6.70
2023-05-03T02:13:53.188Z,6.60
2023-05-03T02:16:20.853Z,6.60
2023-05-03T02:18:48.583Z,6.70
2023-05-03T02:21:16.326Z,6.70
2023-05-03T02:23:43.277Z,6.60
2023-05-03T02:26:10.345Z,6.70
2023-05-03T02:28:37.347Z,6.50
2023-05-03T02:31:06.414Z,6.40
2023-05-03T02:33:34.826Z,6.40
2023-05-03T02:36:02.043Z,6.40
2023-05-03T02:38:29.119Z,6.40
2023-05-03T02:40:57.466Z,6.40
2023-05-03T02:43:24.438Z,6.50
2023-05-03T02:45:51.775Z,6.50
2023-05-03T02:48:18.945Z,6.30
2023-05-03T02:50:45.894Z,6.30
2023-05-03T02:53:13.055Z,6.40
2023-05-03T02:55:40.504Z,6.30
2023-05-03T02:58:07.706Z,6.40
2023-05-03T03:00:34.713Z,6.30
2023-05-03T03:03:01.743Z,6.30
2023-05-03T03:05:29.432Z,6.40
2023-05-03T03:07:56.711Z,6.40
2023-05-03T03:10:24.238Z,6.30
2023-05-03T03:12:51.291Z,6.30
2023-05-03T03:15:27.188Z,6.40
2023-05-03T03:17:57.882Z,6.40
2023-05-03T03:20:26.057Z,6.30
2023-05-03T03:22:53.257Z,6.30
2023-05-03T03:25:21.266Z,6.30
2023-05-03T03:27:49.496Z,6.30
2023-05-03T03:30:16.680Z,6.30
2023-05-03T03:32:55.302Z,6.20
2023-05-03T03:35:31.172Z,6.20
2023-05-03T03:37:58.287Z,6.30
2023-05-03T03:40:25.991Z,6.20
2023-05-03T03:42:55.604Z,6.10
2023-05-03T03:45:22.872Z,6.10
2023-05-03T03:47:51.466Z,6.10
2023-05-03T03:50:21.762Z,6.10
2023-05-03T03:52:48.724Z,6.10
2023-05-03T03:55:16.127Z,6.00
2023-05-03T03:57:46.798Z,6.00
2023-05-03T04:00:14.693Z,5.80
2023-05-03T04:02:47.563Z,5.80
2023-05-03T04:05:18.128Z,5.90
2023-05-03T04:07:46.800Z,5.90
2023-05-03T04:10:16.131Z,5.90
2023-05-03T04:12:44.155Z,5.90
2023-05-03T04:15:13.604Z,5.90
2023-05-03T04:17:41.921Z,5.90
2023-05-03T04:20:12.109Z,5.90
2023-05-03T04:22:41.188Z,5.80
2023-05-03T04:25:17.166Z,5.90
2023-05-03T04:27:51.650Z,6.00
2023-05-03T04:30:20.135Z,5.90
2023-05-03T04:32:54.255Z,5.90
2023-05-03T04:35:23.467Z,5.90
2023-05-03T04:37:50.380Z,5.90
2023-05-03T04:40:21.984Z,5.90
2023-05-03T04:42:58.050Z,6.00
2023-05-03T04:45:29.073Z,5.90
2023-05-03T04:47:57.579Z,5.90
2023-05-03T04:50:26.140Z,5.90
2023-05-03T04:52:54.006Z,5.80
2023-05-03T04:55:23.623Z,5.90
2023-05-03T04:57:52.161Z,5.90
2023-05-03T05:00:19.433Z,6.20
2023-05-03T05:02:52.905Z,6.10
2023-05-03T05:05:20.712Z,6.10
2023-05-03T05:07:48.814Z,6.20
2023-05-03T05:10:18.602Z,6.40
2023-05-03T05:12:46.404Z,6.30
2023-05-03T05:15:13.668Z,6.30
2023-05-03T05:17:41.301Z,6.60
2023-05-03T05:20:13.467Z,6.60
2023-05-03T05:22:45.107Z,6.50
2023-05-03T05:25:12.587Z,6.40
2023-05-03T05:27:41.466Z,6.40
2023-05-03T05:30:09.006Z,6.40
2023-05-03T05:32:38.429Z,6.50
2023-05-03T05:35:09.984Z,6.50
2023-05-03T05:37:37.116Z,6.60
2023-05-03T05:40:07.870Z,6.70
2023-05-03T05:42:41.089Z,6.80
2023-05-03T05:45:08.568Z,6.80
2023-05-03T05:47:37.975Z,6.80
2023-05-03T05:50:16.819Z,6.90
2023-05-03T05:52:46.528Z,7.00
2023-05-03T05:55:14.837Z,7.10
2023-05-03T05:57:43.231Z,7.10
2023-05-03T06:00:14.862Z,7.20
2023-05-03T06:02:45.652Z,7.20
2023-05-03T06:05:17.068Z,7.30
2023-05-03T06:07:45.063Z,7.40
2023-05-03T06:10:12.110Z,7.40
2023-05-03T06:12:43.868Z,7.50
2023-05-03T06:15:15.425Z,7.60
2023-05-03T06:17:46.045Z,7.70
2023-05-03T06:20:13.227Z,7.80
2023-05-03T06:22:41.793Z,7.80
2023-05-03T06:25:10.871Z,7.80
2023-05-03T06:27:39.650Z,8.00
2023-05-03T06:30:08.272Z,8.10
2023-05-03T06:32:35.698Z,8.10
2023-05-03T06:35:03.705Z,8.20
2023-05-03T06:37:30.713Z,8.40
2023-05-03T06:39:57.913Z,8.50
2023-05-03T06:42:24.953Z,8.50
2023-05-03T06:45:06.134Z,8.60
2023-05-03T06:47:33.188Z,8.70
2023-05-03T06:50:00.359Z,8.70
2023-05-03T06:52:27.627Z,8.80
2023-05-03T06:54:54.663Z,8.90
2023-05-03T06:57:22.895Z,8.90
2023-05-03T06:59:49.834Z,9.00
2023-05-03T07:02:18.391Z,9.10
2023-05-03T07:04:45.391Z,9.20
2023-05-03T07:07:12.642Z,9.30
2023-05-03T07:09:43.487Z,9.30
2023-05-03T07:12:11.623Z,9.40
2023-05-03T07:14:40.461Z,9.60
2023-05-03T07:17:08.319Z,9.60
2023-05-03T07:19:37.261Z,9.70
2023-05-03T07:22:04.535Z,9.90
2023-05-03T07:24:31.693Z,9.90
2023-05-03T07:26:59.095Z,9.90
2023-05-03T07:29:27.606Z,9.90
2023-05-03T07:31:54.930Z,10.10
2023-05-03T07:34:22.254Z,10.10
2023-05-03T07:36:49.224Z,10.30
2023-05-03T07:39:17.593Z,10.40
2023-05-03T07:41:44.869Z,10.60
2023-05-03T07:44:11.857Z,10.70
2023-05-03T07:46:38.905Z,10.80
2023-05-03T07:49:06.393Z,10.80
2023-05-03T07:51:38.440Z,10.90
2023-05-03T07:54:06.141Z,10.90
2023-05-03T07:56:33.162Z,11.00
2023-05-03T08:01:30.590Z,11.00
2023-05-03T08:03:58.571Z,11.00
2023-05-03T08:06:26.222Z,11.10
2023-05-03T08:08:53.614Z,11.10
2023-05-03T08:11:21.080Z,11.10
2023-05-03T08:13:48.218Z,11.40
2023-05-03T08:16:16.474Z,11.30
2023-05-03T08:18:43.647Z,11.50
2023-05-03T08:21:12.242Z,11.50
2023-05-03T08:23:39.571Z,11.60
2023-05-03T08:26:07.892Z,11.80
2023-05-03T08:28:35.556Z,11.90
2023-05-03T08:31:05.072Z,11.80
2023-05-03T08:33:32.514Z,12.00
2023-05-03T08:35:59.646Z,12.10
2023-05-03T08:38:26.988Z,12.10
2023-05-03T08:40:58.223Z,12.20
2023-05-03T08:43:27.917Z,12.40
2023-05-03T08:45:55.015Z,12.40
2023-05-03T08:48:22.430Z,12.50
2023-05-03T08:50:53.903Z,12.60
2023-05-03T08:53:21.960Z,12.60
2023-05-03T08:55:49.103Z,12.90
2023-05-03T08:58:17.444Z,12.90
2023-05-03T09:00:45.412Z,12.80
2023-05-03T09:03:13.184Z,12.90
2023-05-03T09:05:41.487Z,12.80
2023-05-03T09:08:12.936Z,12.90
2023-05-03T09:10:42.265Z,12.90
2023-05-03T09:13:10.790Z,13.30
2023-05-03T09:15:38.058Z,13.50
2023-05-03T09:18:08.954Z,13.40
2023-05-03T09:20:37.387Z,13.70
2023-05-03T09:23:04.399Z,13.70
2023-05-03T09:25:53.727Z,13.70
2023-05-03T09:28:21.709Z,13.90
2023-05-03T09:30:53.748Z,13.80
2023-05-03T09:33:29.719Z,14.00
2023-05-03T09:35:58.044Z,13.90
2023-05-03T09:38:33.835Z,13.70
2023-05-03T09:41:07.432Z,13.90
2023-05-03T09:43:38.499Z,13.90
2023-05-03T09:46:10.087Z,14.10
2023-05-03T09:48:38.723Z,14.30
2023-05-03T09:51:09.249Z,14.10
2023-05-03T09:53:38.344Z,14.00
2023-05-03T09:56:12.594Z,14.30
2023-05-03T09:58:40.818Z,14.30
2023-05-03T10:01:13.694Z,14.50
2023-05-03T10:03:42.252Z,14.60
2023-05-03T10:06:39.053Z,14.60
2023-05-03T10:09:20.848Z,14.80
2023-05-03T10:11:54.330Z,15.10
2023-05-03T10:14:22.124Z,15.20
2023-05-03T10:16:52.350Z,14.80
2023-05-03T10:19:46.349Z,14.60
2023-05-03T10:22:13.431Z,15.00
2023-05-03T10:25:02.598Z,15.10
2023-05-03T10:28:03.799Z,15.00
2023-05-03T10:30:35.038Z,15.10
2023-05-03T10:33:14.586Z,15.40
2023-05-03T10:35:54.526Z,15.50
2023-05-03T10:38:29.061Z,15.30
2023-05-03T10:40:56.966Z,15.20
2023-05-03T10:43:29.873Z,15.90
2023-05-03T10:46:03.826Z,15.50
2023-05-03T10:48:31.881Z,15.70
2023-05-03T10:51:29.054Z,15.70
2023-05-03T10:53:56.126Z,15.60
2023-05-03T10:56:26.120Z,15.90
2023-05-03T10:58:56.873Z,16.10
2023-05-03T11:01:26.955Z,16.50
2023-05-03T11:04:03.247Z,16.30
2023-05-03T11:06:52.151Z,16.30
2023-05-03T11:09:19.212Z,16.00
2023-05-03T11:11:46.195Z,16.00
2023-05-03T11:14:14.536Z,16.40
2023-05-03T11:16:48.002Z,16.30
2023-05-03T11:19:16.056Z,15.90
2023-05-03T11:21:44.134Z,16.10
2023-05-03T11:24:11.924Z,16.00
2023-05-03T11:26:39.653Z,16.10
2023-05-03T11:29:10.546Z,16.00
2023-05-03T11:31:37.765Z,16.30
2023-05-03T11:34:06.708Z,16.70
2023-05-03T11:36:34.338Z,16.50
2023-05-03T11:39:01.806Z,16.50
2023-05-03T11:41:28.796Z,16.70
2023-05-03T11:44:07.620Z,16.80
2023-05-03T11:46:42.279Z,16.60
2023-05-03T11:49:10.324Z,16.60
2023-05-03T11:51:37.844Z,16.90
2023-05-03T11:54:21.101Z,17.00
2023-05-03T11:56:55.454Z,17.10
2023-05-03T11:59:37.945Z,17.30
2023-05-03T12:02:06.537Z,17.40
2023-05-03T12:04:34.172Z,17.30
2023-05-03T12:07:02.734Z,17.30
2023-05-03T12:09:31.532Z,17.30
2023-05-03T12:12:01.590Z,17.60
2023-05-03T12:14:29.756Z,17.50
2023-05-03T12:17:00.162Z,17.60
2023-05-03T12:19:34.464Z,17.80
2023-05-03T12:24:33.751Z,17.70
2023-05-03T12:27:03.284Z,17.30
2023-05-03T12:29:34.915Z,17.40
2023-05-03T12:32:04.452Z,17.10
2023-05-03T12:34:35.461Z,17.30
2023-05-03T12:37:06.162Z,17.40
2023-05-03T12:39:34.720Z,17.50
2023-05-03T12:42:08.062Z,17.40
2023-05-03T12:44:35.845Z,17.40
2023-05-03T12:47:04.634Z,17.60
2023-05-03T12:49:32.361Z,17.70
2023-05-03T12:52:34.632Z,17.40
2023-05-03T12:54:55.254Z,17.70
2023-05-03T12:57:24.567Z,17.90
2023-05-03T13:00:02.248Z,18.10
2023-05-03T13:05:01.833Z,18.10
2023-05-03T13:07:32.054Z,18.00
2023-05-03T13:12:30.976Z,18.30
2023-05-03T13:14:58.133Z,17.70
2023-05-03T13:17:25.454Z,18.00
2023-05-03T13:19:53.626Z,18.00
2023-05-03T13:22:21.750Z,18.40
2023-05-03T13:24:51.843Z,18.30
2023-05-03T13:27:24.554Z,18.10
2023-05-03T13:29:57.397Z,18.40
2023-05-03T13:32:25.067Z,18.30
2023-05-03T13:34:52.169Z,18.20
2023-05-03T13:37:20.655Z,18.00
2023-05-03T13:39:47.965Z,18.00
2023-05-03T13:42:14.995Z,18.30
2023-05-03T13:44:42.631Z,18.10
2023-05-03T13:47:09.867Z,18.10
2023-05-03T13:49:36.776Z,18.00
2023-05-03T13:52:04.969Z,18.60
2023-05-03T13:54:32.302Z,18.80
2023-05-03T13:56:59.530Z,18.70
2023-05-03T13:59:26.618Z,18.30
2023-05-03T14:01:53.714Z,18.20
2023-05-03T14:04:21.066Z,18.40
2023-05-03T14:06:48.102Z,18.60
2023-05-03T14:09:15.109Z,18.20
2023-05-03T14:11:57.620Z,17.90
2023-05-03T14:14:27.681Z,18.10
2023-05-03T14:16:54.759Z,18.70
2023-05-03T14:19:21.886Z,18.30
2023-05-03T14:21:51.257Z,18.20
2023-05-03T14:24:18.594Z,18.30
2023-05-03T14:26:45.597Z,18.60
2023-05-03T14:29:13.642Z,18.30
2023-05-03T14:31:41.085Z,18.60
2023-05-03T14:34:08.262Z,18.80
2023-05-03T14:36:38.632Z,18.50
2023-05-03T14:39:06.932Z,18.50
2023-05-03T14:41:34.553Z,18.50
2023-05-03T14:44:02.255Z,18.40
2023-05-03T14:46:29.399Z,18.80
2023-05-03T14:48:56.459Z,18.80
2023-05-03T14:51:24.397Z,19.10
2023-05-03T14:53:51.491Z,18.60
2023-05-03T14:56:18.562Z,18.70
2023-05-03T14:58:45.601Z,18.70
2023-05-03T15:01:21.718Z,19.00
2023-05-03T15:03:49.072Z,18.80
2023-05-03T15:06:28.661Z,18.60
2023-05-03T15:08:55.713Z,18.70
2023-05-03T15:11:22.746Z,18.80
2023-05-03T15:13:52.511Z,19.10
2023-05-03T15:16:19.678Z,19.10
2023-05-03T15:18:49.819Z,18.80
2023-05-03T15:21:19.897Z,18.50
2023-05-03T15:23:50.062Z,18.50
2023-05-03T15:26:17.241Z,18.90
2023-05-03T15:28:45.790Z,18.70
2023-05-03T15:31:14.524Z,18.50
2023-05-03T15:33:42.913Z,18.70
2023-05-03T15:36:12.080Z,18.90
2023-05-03T15:38:41.609Z,18.90
2023-05-03T15:41:09.384Z,19.10
2023-05-03T15:43:36.949Z,18.80
2023-05-03T15:46:04.412Z,18.70
2023-05-03T15:48:31.571Z,18.80
2023-05-03T15:50:58.987Z,18.90
2023-05-03T15:53:27.088Z,18.90
2023-05-03T15:55:58.147Z,18.90
2023-05-03T15:58:25.888Z,19.00
2023-05-03T16:00:52.865Z,19.10
2023-05-03T16:03:20.344Z,19.20
2023-05-03T16:05:47.996Z,19.30
2023-05-03T16:08:15.349Z,19.50
2023-05-03T16:10:48.172Z,19.30
2023-05-03T16:13:23.720Z,19.00
2023-05-03T16:15:52.703Z,19.10
2023-05-03T16:18:19.975Z,19.40
2023-05-03T16:20:48.245Z,19.10
2023-05-03T16:23:15.480Z,18.90
2023-05-03T16:25:42.732Z,18.80
2023-05-03T16:28:10.329Z,18.90
2023-05-03T16:30:37.353Z,19.00
2023-05-03T16:33:05.375Z,18.80
2023-05-03T16:35:32.459Z,18.40
2023-05-03T16:38:00.048Z,18.60
2023-05-03T16:40:27.174Z,18.70
2023-05-03T16:42:55.789Z,18.30
2023-05-03T16:45:25.091Z,18.30
2023-05-03T16:47:52.993Z,18.30
2023-05-03T16:50:20.681Z,18.10
2023-05-03T16:52:47.697Z,17.90
2023-05-03T16:55:14.758Z,17.70
2023-05-03T16:57:42.335Z,17.50
2023-05-03T17:00:11.202Z,17.60
2023-05-03T17:02:39.738Z,17.70
2023-05-03T17:05:13.561Z,17.60
2023-05-03T17:07:41.933Z,17.40
2023-05-03T17:10:09.796Z,17.30
2023-05-03T17:12:37.035Z,17.30
2023-05-03T17:15:08.159Z,17.20
2023-05-03T17:17:35.754Z,17.20
2023-05-03T17:20:03.180Z,17.30
2023-05-03T17:22:30.467Z,17.20
2023-05-03T17:24:57.994Z,17.20
2023-05-03T17:27:25.447Z,17.10
2023-05-03T17:29:52.524Z,17.10
2023-05-03T17:32:19.473Z,17.10
2023-05-03T17:34:46.543Z,17.10
2023-05-03T17:37:14.100Z,17.00
2023-05-03T17:39:41.579Z,17.00
2023-05-03T17:42:09.078Z,16.90
2023-05-03T17:44:36.220Z,17.00
2023-05-03T17:47:06.661Z,16.90
2023-05-03T17:49:34.154Z,16.90
2023-05-03T17:52:04.968Z,16.90
2023-05-03T17:54:32.035Z,16.80
2023-05-03T17:57:00.288Z,16.70
2023-05-03T17:59:27.304Z,16.70
2023-05-03T18:01:54.359Z,16.80
2023-05-03T18:04:22.782Z,16.70
2023-05-03T18:06:49.910Z,16.70
2023-05-03T18:09:16.929Z,16.70
2023-05-03T18:11:45.421Z,16.60
2023-05-03T18:14:12.751Z,16.60
2023-05-03T18:16:40.122Z,16.50
2023-05-03T18:19:07.320Z,16.50
2023-05-03T18:21:35.526Z,16.50
2023-05-03T18:24:04.653Z,16.40
2023-05-03T18:26:31.772Z,16.30
2023-05-03T18:28:58.794Z,16.30
2023-05-03T18:31:25.983Z,16.10
2023-05-03T18:33:53.416Z,16.20
2023-05-03T18:36:26.869Z,16.00
2023-05-03T18:38:54.459Z,16.00
2023-05-03T18:41:21.515Z,16.00
2023-05-03T18:43:52.201Z,15.90
2023-05-03T18:46:19.993Z,15.90
2023-05-03T18:48:47.939Z,15.80
2023-05-03T18:51:17.829Z,15.80
2023-05-03T18:53:45.729Z,15.70
2023-05-03T18:56:13.364Z,15.70
2023-05-03T18:58:40.633Z,15.60
2023-05-03T19:01:07.728Z,15.40
2023-05-03T19:03:36.232Z,15.40
2023-05-03T19:06:05.531Z,15.40
2023-05-03T19:08:32.788Z,15.40
2023-05-03T19:11:14.461Z,15.30
2023-05-03T19:13:45.464Z,15.20
2023-05-03T19:16:13.154Z,15.10
2023-05-03T19:18:41.933Z,15.10
2023-05-03T19:21:10.205Z,15.10
2023-05-03T19:23:40.372Z,15.00
2023-05-03T19:26:07.788Z,15.00
2023-05-03T19:28:35.993Z,15.00
2023-05-03T19:31:04.297Z,14.80
2023-05-03T19:33:32.610Z,14.90
2023-05-03T19:36:06.589Z,14.80
2023-05-03T19:38:36.467Z,14.80
2023-05-03T19:41:13.514Z,14.80
2023-05-03T19:43:41.509Z,14.80
2023-05-03T19:46:09.653Z,14.70
2023-05-03T19:48:37.368Z,14.70
2023-05-03T19:51:06.617Z,14.70
2023-05-03T19:53:34.922Z,14.70
2023-05-03T19:56:03.986Z,14.60
2023-05-03T19:58:34.555Z,14.60
2023-05-03T20:01:01.765Z,14.50
2023-05-03T20:03:28.984Z,14.30
2023-05-03T20:05:56.672Z,14.30
2023-05-03T20:08:24.393Z,14.20
2023-05-03T20:10:51.726Z,14.20
2023-05-03T20:13:19.015Z,14.10
2023-05-03T20:15:46.123Z,14.10
2023-05-03T20:18:13.206Z,14.10
2023-05-03T20:20:40.328Z,14.20
2023-05-03T20:23:07.345Z,14.00
2023-05-03T20:25:35.866Z,14.00
2023-05-03T20:28:05.537Z,14.00
2023-05-03T20:30:34.710Z,14.00
2023-05-03T20:33:04.536Z,13.90
2023-05-03T20:35:32.325Z,13.70
2023-05-03T20:37:59.439Z,13.70
2023-05-03T20:40:27.829Z,13.60
2023-05-03T20:42:54.832Z,13.60
2023-05-03T20:45:22.550Z,13.50
2023-05-03T20:47:51.191Z,13.50
2023-05-03T20:50:18.834Z,13.50
2023-05-03T20:52:46.069Z,13.40
2023-05-03T20:55:14.517Z,13.40
2023-05-03T20:57:46.463Z,13.40
2023-05-03T21:00:15.905Z,13.40
2023-05-03T21:02:44.937Z,13.40
2023-05-03T21:05:13.190Z,13.30
2023-05-03T21:07:40.654Z,13.30
2023-05-03T21:10:08.314Z,13.30
2023-05-03T21:12:35.515Z,13.30
2023-05-03T21:15:02.983Z,13.30
2023-05-03T21:17:31.710Z,13.20
2023-05-03T21:20:00.237Z,13.30
2023-05-03T21:22:27.311Z,13.20
2023-05-03T21:24:54.365Z,13.20
2023-05-03T21:27:22.482Z,13.20
2023-05-03T21:29:50.259Z,13.10
2023-05-03T21:32:17.363Z,13.20
2023-05-03T21:34:44.424Z,13.10
2023-05-03T21:37:12.656Z,13.10
2023-05-03T21:39:40.895Z,13.00
2023-05-03T21:42:07.860Z,12.90
2023-05-03T21:44:35.542Z,12.80
2023-05-03T21:47:03.717Z,12.80
2023-05-03T21:49:30.884Z,12.80
2023-05-03T21:51:58.366Z,12.70
2023-05-03T21:54:26.706Z,12.80
2023-05-03T21:56:53.642Z,12.80
2023-05-03T21:59:21.246Z,12.70
2023-05-03T22:01:49.343Z,12.60
2023-05-03T22:04:16.316Z,12.70
2023-05-03T22:06:44.372Z,12.70
2023-05-03T22:09:11.827Z,12.70
2023-05-03T22:11:39.251Z,12.60
2023-05-03T22:14:08.385Z,12.60
2023-05-03T22:16:37.786Z,12.60
2023-05-03T22:19:05.443Z,12.60
2023-05-03T22:21:32.656Z,12.50
2023-05-03T22:23:59.655Z,12.50
2023-05-03T22:26:26.923Z,12.50
2023-05-03T22:28:54.488Z,12.40
2023-05-03T22:31:21.783Z,12.30
2023-05-03T22:33:49.114Z,12.40
2023-05-03T22:36:16.158Z,12.40
2023-05-03T22:38:43.654Z,12.40
2023-05-03T22:41:11.248Z,12.20
2023-05-03T22:43:38.406Z,12.20
2023-05-03T22:46:06.231Z,12.10
2023-05-03T22:48:34.172Z,12.10
2023-05-03T22:51:01.267Z,12.10
2023-05-03T22:53:28.429Z,12.10
2023-05-03T22:56:04.474Z,12.10
2023-05-03T22:58:31.706Z,12.10
2023-05-03T23:00:58.840Z,12.00
2023-05-03T23:03:27.061Z,12.00
2023-05-03T23:05:54.703Z,11.90
2023-05-03T23:08:22.363Z,11.80
2023-05-03T23:10:49.340Z,11.90
2023-05-03T23:13:16.669Z,11.80
2023-05-03T23:15:44.103Z,11.90
2023-05-03T23:18:11.227Z,11.80
2023-05-03T23:20:38.474Z,11.80
2023-05-03T23:23:05.527Z,11.70
2023-05-03T23:25:32.573Z,11.60
2023-05-03T23:27:59.610Z,11.60
2023-05-03T23:30:27.144Z,11.50
2023-05-03T23:32:54.625Z,11.50
2023-05-03T23:35:22.106Z,11.60
2023-05-03T23:37:49.037Z,11.50
2023-05-03T23:40:16.139Z,11.40
2023-05-03T23:42:43.562Z,11.30
2023-05-03T23:45:11.106Z,11.40
2023-05-03T23:47:38.154Z,11.40
2023-05-03T23:50:06.024Z,11.40
2023-05-03T23:52:33.357Z,11.40
2023-05-03T23:55:00.412Z,11.40
2023-05-03T23:57:27.360Z,11.40
2023-05-03T23:59:54.555Z,11.20
